sensor_id;sensor_type;location;lat;lon;timestamp;P1;durP1;ratioP1;P2;durP2;ratioP2
9836;SDS011;4957;51.412;6.724;2023-04-09T00:01:53;28.90;;;17.77;;
9836;SDS011;4957;51.412;6.724;2023-04-09T00:04:19;31.33;;;19.13;;
9836;SDS011;4957;51.412;6.724;2023-04-09T00:06:46;32.23;;;19.23;;
9836;SDS011;4957;51.412;6.724;2023-04-09T00:09:12;30.47;;;17.83;;
9836;SDS011;4957;51.412;6.724;2023-04-09T00:11:37;33.43;;;19.50;;
9836;SDS011;4957;51.412;6.724;2023-04-09T00:14:03;34.23;;;19.37;;
9836;SDS011;4957;51.412;6.724;2023-04-09T00:16:29;30.63;;;17.87;;
9836;SDS011;4957;51.412;6.724;2023-04-09T00:18:54;36.30;;;21.47;;
9836;SDS011;4957;51.412;6.724;2023-04-09T00:21:20;32.33;;;20.17;;
9836;SDS011;4957;51.412;6.724;2023-04-09T00:23:46;28.13;;;19.87;;
9836;SDS011;4957;51.412;6.724;2023-04-09T00:26:12;27.17;;;16.73;;
9836;SDS011;4957;51.412;6.724;2023-04-09T00:28:38;30.77;;;18.13;;
9836;SDS011;4957;51.412;6.724;2023-04-09T00:31:03;31.77;;;18.63;;
9836;SDS011;4957;51.412;6.724;2023-04-09T00:33:29;31.83;;;19.20;;
9836;SDS011;4957;51.412;6.724;2023-04-09T00:35:55;31.67;;;19.07;;
9836;SDS011;4957;51.412;6.724;2023-04-09T00:38:21;30.90;;;18.53;;
9836;SDS011;4957;51.412;6.724;2023-04-09T00:40:50;32.67;;;19.73;;
9836;SDS011;4957;51.412;6.724;2023-04-09T00:43:16;31.67;;;18.83;;
9836;SDS011;4957;51.412;6.724;2023-04-09T00:45:42;29.63;;;18.03;;
9836;SDS011;4957;51.412;6.724;2023-04-09T00:48:09;29.43;;;18.40;;
9836;SDS011;4957;51.412;6.724;2023-04-09T00:50:36;37.00;;;19.20;;
9836;SDS011;4957;51.412;6.724;2023-04-09T00:53:02;35.07;;;19.47;;
9836;SDS011;4957;51.412;6.724;2023-04-09T00:55:28;30.37;;;17.33;;
9836;SDS011;4957;51.412;6.724;2023-04-09T00:57:54;34.07;;;19.97;;
9836;SDS011;4957;51.412;6.724;2023-04-09T01:00:20;37.20;;;20.03;;
9836;SDS011;4957;51.412;6.724;2023-04-09T01:02:46;40.07;;;20.43;;
9836;SDS011;4957;51.412;6.724;2023-04-09T01:05:12;32.43;;;18.67;;
9836;SDS011;4957;51.412;6.724;2023-04-09T01:10:28;31.43;;;17.53;;
9836;SDS011;4957;51.412;6.724;2023-04-09T01:13:11;31.10;;;18.33;;
9836;SDS011;4957;51.412;6.724;2023-04-09T01:15:47;32.53;;;17.93;;
9836;SDS011;4957;51.412;6.724;2023-04-09T01:18:27;31.30;;;17.30;;
9836;SDS011;4957;51.412;6.724;2023-04-09T01:21:01;28.63;;;18.17;;
9836;SDS011;4957;51.412;6.724;2023-04-09T01:23:41;31.27;;;17.57;;
9836;SDS011;4957;51.412;6.724;2023-04-09T01:26:26;32.00;;;18.47;;
9836;SDS011;4957;51.412;6.724;2023-04-09T01:29:02;35.40;;;18.50;;
9836;SDS011;4957;51.412;6.724;2023-04-09T01:31:30;32.87;;;19.03;;
9836;SDS011;4957;51.412;6.724;2023-04-09T01:33:59;34.10;;;17.83;;
9836;SDS011;4957;51.412;6.724;2023-04-09T01:36:26;33.47;;;18.47;;
9836;SDS011;4957;51.412;6.724;2023-04-09T01:38:55;30.57;;;18.10;;
9836;SDS011;4957;51.412;6.724;2023-04-09T01:41:21;33.50;;;18.60;;
9836;SDS011;4957;51.412;6.724;2023-04-09T01:43:49;29.80;;;16.73;;
9836;SDS011;4957;51.412;6.724;2023-04-09T01:46:16;33.20;;;19.07;;
9836;SDS011;4957;51.412;6.724;2023-04-09T01:48:42;33.87;;;19.20;;
9836;SDS011;4957;51.412;6.724;2023-04-09T01:51:09;35.37;;;19.83;;
9836;SDS011;4957;51.412;6.724;2023-04-09T01:53:38;32.73;;;19.33;;
9836;SDS011;4957;51.412;6.724;2023-04-09T01:56:05;36.90;;;19.83;;
9836;SDS011;4957;51.412;6.724;2023-04-09T01:58:31;36.53;;;20.57;;
9836;SDS011;4957;51.412;6.724;2023-04-09T02:01:05;33.20;;;18.87;;
9836;SDS011;4957;51.412;6.724;2023-04-09T02:03:46;36.07;;;19.87;;
9836;SDS011;4957;51.412;6.724;2023-04-09T02:06:24;37.00;;;20.63;;
9836;SDS011;4957;51.412;6.724;2023-04-09T02:09:14;36.47;;;20.00;;
9836;SDS011;4957;51.412;6.724;2023-04-09T02:11:42;35.33;;;19.80;;
9836;SDS011;4957;51.412;6.724;2023-04-09T02:14:11;37.70;;;21.00;;
9836;SDS011;4957;51.412;6.724;2023-04-09T02:16:38;33.40;;;19.53;;
9836;SDS011;4957;51.412;6.724;2023-04-09T02:19:04;34.10;;;19.97;;
9836;SDS011;4957;51.412;6.724;2023-04-09T02:21:30;41.17;;;21.83;;
9836;SDS011;4957;51.412;6.724;2023-04-09T02:23:56;44.20;;;21.37;;
9836;SDS011;4957;51.412;6.724;2023-04-09T02:26:22;39.73;;;21.63;;
9836;SDS011;4957;51.412;6.724;2023-04-09T02:28:51;39.10;;;21.43;;
9836;SDS011;4957;51.412;6.724;2023-04-09T02:31:16;38.10;;;21.30;;
9836;SDS011;4957;51.412;6.724;2023-04-09T02:33:42;40.20;;;21.87;;
9836;SDS011;4957;51.412;6.724;2023-04-09T02:36:11;39.90;;;22.30;;
9836;SDS011;4957;51.412;6.724;2023-04-09T02:38:39;38.33;;;22.33;;
9836;SDS011;4957;51.412;6.724;2023-04-09T02:41:06;42.20;;;22.83;;
9836;SDS011;4957;51.412;6.724;2023-04-09T02:43:32;38.80;;;21.57;;
9836;SDS011;4957;51.412;6.724;2023-04-09T02:45:57;36.40;;;21.23;;
9836;SDS011;4957;51.412;6.724;2023-04-09T02:48:23;35.50;;;19.90;;
9836;SDS011;4957;51.412;6.724;2023-04-09T02:50:49;40.97;;;20.90;;
9836;SDS011;4957;51.412;6.724;2023-04-09T02:53:14;42.17;;;22.47;;
9836;SDS011;4957;51.412;6.724;2023-04-09T02:55:40;36.73;;;19.97;;
9836;SDS011;4957;51.412;6.724;2023-04-09T02:58:06;37.67;;;20.60;;
9836;SDS011;4957;51.412;6.724;2023-04-09T03:00:31;40.63;;;20.80;;
9836;SDS011;4957;51.412;6.724;2023-04-09T03:02:57;35.13;;;19.83;;
9836;SDS011;4957;51.412;6.724;2023-04-09T03:05:23;39.10;;;22.47;;
9836;SDS011;4957;51.412;6.724;2023-04-09T03:07:50;36.27;;;20.40;;
9836;SDS011;4957;51.412;6.724;2023-04-09T03:10:15;39.17;;;22.30;;
9836;SDS011;4957;51.412;6.724;2023-04-09T03:12:41;40.37;;;21.77;;
9836;SDS011;4957;51.412;6.724;2023-04-09T03:15:08;44.03;;;22.33;;
9836;SDS011;4957;51.412;6.724;2023-04-09T03:17:35;38.60;;;21.77;;
9836;SDS011;4957;51.412;6.724;2023-04-09T03:20:00;34.50;;;20.87;;
9836;SDS011;4957;51.412;6.724;2023-04-09T03:22:26;41.37;;;20.57;;
9836;SDS011;4957;51.412;6.724;2023-04-09T03:24:52;38.70;;;21.23;;
9836;SDS011;4957;51.412;6.724;2023-04-09T03:27:18;40.17;;;21.53;;
9836;SDS011;4957;51.412;6.724;2023-04-09T03:29:43;37.20;;;20.93;;
9836;SDS011;4957;51.412;6.724;2023-04-09T03:32:09;38.93;;;21.93;;
9836;SDS011;4957;51.412;6.724;2023-04-09T03:34:35;33.17;;;19.20;;
9836;SDS011;4957;51.412;6.724;2023-04-09T03:37:00;40.93;;;21.57;;
9836;SDS011;4957;51.412;6.724;2023-04-09T03:39:26;38.93;;;22.10;;
9836;SDS011;4957;51.412;6.724;2023-04-09T03:41:54;38.33;;;21.03;;
9836;SDS011;4957;51.412;6.724;2023-04-09T03:44:22;40.67;;;19.77;;
9836;SDS011;4957;51.412;6.724;2023-04-09T03:46:48;37.13;;;20.87;;
9836;SDS011;4957;51.412;6.724;2023-04-09T03:49:14;42.57;;;21.17;;
9836;SDS011;4957;51.412;6.724;2023-04-09T03:51:40;38.03;;;20.97;;
9836;SDS011;4957;51.412;6.724;2023-04-09T03:54:05;37.57;;;21.70;;
9836;SDS011;4957;51.412;6.724;2023-04-09T03:56:31;39.03;;;21.37;;
9836;SDS011;4957;51.412;6.724;2023-04-09T03:58:57;36.30;;;19.60;;
9836;SDS011;4957;51.412;6.724;2023-04-09T04:01:22;45.30;;;22.30;;
9836;SDS011;4957;51.412;6.724;2023-04-09T04:03:48;37.97;;;21.07;;
9836;SDS011;4957;51.412;6.724;2023-04-09T04:06:14;38.13;;;22.13;;
9836;SDS011;4957;51.412;6.724;2023-04-09T04:08:40;39.57;;;22.20;;
9836;SDS011;4957;51.412;6.724;2023-04-09T04:11:05;35.63;;;20.97;;
9836;SDS011;4957;51.412;6.724;2023-04-09T04:13:31;38.47;;;21.77;;
9836;SDS011;4957;51.412;6.724;2023-04-09T04:15:56;42.37;;;22.53;;
9836;SDS011;4957;51.412;6.724;2023-04-09T04:18:22;36.77;;;22.63;;
9836;SDS011;4957;51.412;6.724;2023-04-09T04:20:48;39.53;;;21.80;;
9836;SDS011;4957;51.412;6.724;2023-04-09T04:23:14;38.57;;;22.47;;
9836;SDS011;4957;51.412;6.724;2023-04-09T04:25:40;42.47;;;23.30;;
9836;SDS011;4957;51.412;6.724;2023-04-09T04:28:06;43.53;;;22.43;;
9836;SDS011;4957;51.412;6.724;2023-04-09T04:30:32;37.63;;;21.97;;
9836;SDS011;4957;51.412;6.724;2023-04-09T04:32:58;41.60;;;22.60;;
9836;SDS011;4957;51.412;6.724;2023-04-09T04:35:23;42.20;;;22.50;;
9836;SDS011;4957;51.412;6.724;2023-04-09T04:37:49;42.97;;;23.30;;
9836;SDS011;4957;51.412;6.724;2023-04-09T04:40:15;42.67;;;22.37;;
9836;SDS011;4957;51.412;6.724;2023-04-09T04:42:41;39.97;;;22.73;;
9836;SDS011;4957;51.412;6.724;2023-04-09T04:45:07;42.43;;;23.33;;
9836;SDS011;4957;51.412;6.724;2023-04-09T04:47:33;42.13;;;23.63;;
9836;SDS011;4957;51.412;6.724;2023-04-09T04:49:59;36.73;;;22.33;;
9836;SDS011;4957;51.412;6.724;2023-04-09T04:52:25;39.27;;;23.17;;
9836;SDS011;4957;51.412;6.724;2023-04-09T04:54:51;46.23;;;22.67;;
9836;SDS011;4957;51.412;6.724;2023-04-09T04:57:16;45.87;;;24.03;;
9836;SDS011;4957;51.412;6.724;2023-04-09T04:59:42;42.43;;;23.23;;
9836;SDS011;4957;51.412;6.724;2023-04-09T05:02:08;41.53;;;23.73;;
9836;SDS011;4957;51.412;6.724;2023-04-09T05:04:34;42.73;;;23.80;;
9836;SDS011;4957;51.412;6.724;2023-04-09T05:07:00;35.23;;;20.73;;
9836;SDS011;4957;51.412;6.724;2023-04-09T05:09:25;39.33;;;21.93;;
9836;SDS011;4957;51.412;6.724;2023-04-09T05:11:51;44.70;;;21.97;;
9836;SDS011;4957;51.412;6.724;2023-04-09T05:14:17;43.50;;;22.27;;
9836;SDS011;4957;51.412;6.724;2023-04-09T05:16:45;43.67;;;23.73;;
9836;SDS011;4957;51.412;6.724;2023-04-09T05:19:11;41.47;;;23.27;;
9836;SDS011;4957;51.412;6.724;2023-04-09T05:21:37;44.40;;;23.93;;
9836;SDS011;4957;51.412;6.724;2023-04-09T05:24:02;41.37;;;23.33;;
9836;SDS011;4957;51.412;6.724;2023-04-09T05:26:28;42.10;;;24.10;;
9836;SDS011;4957;51.412;6.724;2023-04-09T05:28:54;44.67;;;24.53;;
9836;SDS011;4957;51.412;6.724;2023-04-09T05:31:20;44.67;;;24.67;;
9836;SDS011;4957;51.412;6.724;2023-04-09T05:33:46;37.23;;;21.57;;
9836;SDS011;4957;51.412;6.724;2023-04-09T05:36:15;39.30;;;21.70;;
9836;SDS011;4957;51.412;6.724;2023-04-09T05:38:41;44.53;;;24.57;;
9836;SDS011;4957;51.412;6.724;2023-04-09T05:41:10;46.03;;;23.70;;
9836;SDS011;4957;51.412;6.724;2023-04-09T05:43:36;45.80;;;23.70;;
9836;SDS011;4957;51.412;6.724;2023-04-09T05:46:02;48.57;;;25.20;;
9836;SDS011;4957;51.412;6.724;2023-04-09T05:48:28;49.80;;;25.80;;
9836;SDS011;4957;51.412;6.724;2023-04-09T05:50:53;46.73;;;25.50;;
9836;SDS011;4957;51.412;6.724;2023-04-09T05:53:19;48.17;;;25.73;;
9836;SDS011;4957;51.412;6.724;2023-04-09T05:55:45;50.93;;;25.63;;
9836;SDS011;4957;51.412;6.724;2023-04-09T05:58:13;51.03;;;26.53;;
9836;SDS011;4957;51.412;6.724;2023-04-09T06:00:40;45.67;;;25.03;;
9836;SDS011;4957;51.412;6.724;2023-04-09T06:03:07;53.33;;;27.47;;
9836;SDS011;4957;51.412;6.724;2023-04-09T06:05:33;52.67;;;27.87;;
9836;SDS011;4957;51.412;6.724;2023-04-09T06:07:59;66.20;;;30.57;;
9836;SDS011;4957;51.412;6.724;2023-04-09T06:10:25;66.17;;;30.90;;
9836;SDS011;4957;51.412;6.724;2023-04-09T06:12:51;71.17;;;32.47;;
9836;SDS011;4957;51.412;6.724;2023-04-09T06:15:17;77.47;;;35.37;;
9836;SDS011;4957;51.412;6.724;2023-04-09T06:17:43;80.97;;;36.23;;
9836;SDS011;4957;51.412;6.724;2023-04-09T06:20:08;88.73;;;37.87;;
9836;SDS011;4957;51.412;6.724;2023-04-09T06:22:35;107.40;;;42.07;;
9836;SDS011;4957;51.412;6.724;2023-04-09T06:25:01;91.40;;;40.80;;
9836;SDS011;4957;51.412;6.724;2023-04-09T06:27:26;115.37;;;46.80;;
9836;SDS011;4957;51.412;6.724;2023-04-09T06:29:52;119.07;;;47.63;;
9836;SDS011;4957;51.412;6.724;2023-04-09T06:32:18;113.13;;;47.03;;
9836;SDS011;4957;51.412;6.724;2023-04-09T06:34:43;116.27;;;47.97;;
9836;SDS011;4957;51.412;6.724;2023-04-09T06:37:09;119.20;;;49.10;;
9836;SDS011;4957;51.412;6.724;2023-04-09T06:39:35;110.83;;;48.80;;
9836;SDS011;4957;51.412;6.724;2023-04-09T06:42:00;117.43;;;50.60;;
9836;SDS011;4957;51.412;6.724;2023-04-09T06:44:28;117.33;;;52.03;;
9836;SDS011;4957;51.412;6.724;2023-04-09T06:46:55;109.60;;;51.20;;
9836;SDS011;4957;51.412;6.724;2023-04-09T06:49:20;112.73;;;54.57;;
9836;SDS011;4957;51.412;6.724;2023-04-09T06:51:46;105.90;;;52.13;;
9836;SDS011;4957;51.412;6.724;2023-04-09T06:54:12;89.00;;;47.33;;
9836;SDS011;4957;51.412;6.724;2023-04-09T06:56:37;100.27;;;52.63;;
9836;SDS011;4957;51.412;6.724;2023-04-09T06:59:03;78.80;;;44.17;;
9836;SDS011;4957;51.412;6.724;2023-04-09T07:01:29;92.53;;;47.13;;
9836;SDS011;4957;51.412;6.724;2023-04-09T07:03:55;70.77;;;41.33;;
9836;SDS011;4957;51.412;6.724;2023-04-09T07:06:21;69.93;;;38.80;;
9836;SDS011;4957;51.412;6.724;2023-04-09T07:08:47;52.60;;;31.13;;
9836;SDS011;4957;51.412;6.724;2023-04-09T07:11:12;45.23;;;26.90;;
9836;SDS011;4957;51.412;6.724;2023-04-09T07:13:41;40.63;;;22.00;;
9836;SDS011;4957;51.412;6.724;2023-04-09T07:16:07;34.60;;;19.50;;
9836;SDS011;4957;51.412;6.724;2023-04-09T07:18:32;30.50;;;17.90;;
9836;SDS011;4957;51.412;6.724;2023-04-09T07:20:58;26.70;;;17.10;;
9836;SDS011;4957;51.412;6.724;2023-04-09T07:23:24;28.57;;;17.17;;
9836;SDS011;4957;51.412;6.724;2023-04-09T07:25:50;24.47;;;15.03;;
9836;SDS011;4957;51.412;6.724;2023-04-09T07:28:15;19.83;;;13.53;;
9836;SDS011;4957;51.412;6.724;2023-04-09T07:30:41;21.70;;;14.03;;
9836;SDS011;4957;51.412;6.724;2023-04-09T07:33:07;19.50;;;13.27;;
9836;SDS011;4957;51.412;6.724;2023-04-09T07:35:32;24.57;;;13.77;;
9836;SDS011;4957;51.412;6.724;2023-04-09T07:37:59;20.80;;;13.27;;
9836;SDS011;4957;51.412;6.724;2023-04-09T07:40:25;19.77;;;13.07;;
9836;SDS011;4957;51.412;6.724;2023-04-09T07:42:51;20.67;;;13.03;;
9836;SDS011;4957;51.412;6.724;2023-04-09T07:45:17;21.40;;;12.37;;
9836;SDS011;4957;51.412;6.724;2023-04-09T07:47:43;19.10;;;12.57;;
9836;SDS011;4957;51.412;6.724;2023-04-09T07:50:10;18.80;;;12.20;;
9836;SDS011;4957;51.412;6.724;2023-04-09T07:52:36;16.70;;;11.00;;
9836;SDS011;4957;51.412;6.724;2023-04-09T07:55:02;17.77;;;11.23;;
9836;SDS011;4957;51.412;6.724;2023-04-09T07:57:31;13.70;;;9.60;;
9836;SDS011;4957;51.412;6.724;2023-04-09T07:59:57;16.60;;;10.97;;
9836;SDS011;4957;51.412;6.724;2023-04-09T08:02:22;16.37;;;10.80;;
9836;SDS011;4957;51.412;6.724;2023-04-09T08:04:48;16.63;;;10.50;;
9836;SDS011;4957;51.412;6.724;2023-04-09T08:07:14;14.37;;;9.40;;
9836;SDS011;4957;51.412;6.724;2023-04-09T08:09:40;14.73;;;9.73;;
9836;SDS011;4957;51.412;6.724;2023-04-09T08:12:06;13.13;;;8.27;;
9836;SDS011;4957;51.412;6.724;2023-04-09T08:14:31;12.63;;;8.40;;
9836;SDS011;4957;51.412;6.724;2023-04-09T08:16:57;11.00;;;8.67;;
9836;SDS011;4957;51.412;6.724;2023-04-09T08:19:24;12.60;;;8.00;;
9836;SDS011;4957;51.412;6.724;2023-04-09T08:21:49;9.73;;;7.43;;
9836;SDS011;4957;51.412;6.724;2023-04-09T08:24:16;10.50;;;7.10;;
9836;SDS011;4957;51.412;6.724;2023-04-09T08:26:42;9.43;;;6.57;;
9836;SDS011;4957;51.412;6.724;2023-04-09T08:29:09;10.87;;;7.37;;
9836;SDS011;4957;51.412;6.724;2023-04-09T08:31:36;9.63;;;8.07;;
9836;SDS011;4957;51.412;6.724;2023-04-09T08:34:02;11.00;;;7.57;;
9836;SDS011;4957;51.412;6.724;2023-04-09T08:36:28;9.50;;;7.53;;
9836;SDS011;4957;51.412;6.724;2023-04-09T08:38:58;9.93;;;7.30;;
9836;SDS011;4957;51.412;6.724;2023-04-09T08:41:25;8.83;;;6.80;;
9836;SDS011;4957;51.412;6.724;2023-04-09T08:43:54;7.97;;;6.33;;
9836;SDS011;4957;51.412;6.724;2023-04-09T08:46:21;7.90;;;5.80;;
9836;SDS011;4957;51.412;6.724;2023-04-09T08:48:48;9.20;;;6.40;;
9836;SDS011;4957;51.412;6.724;2023-04-09T08:51:15;8.57;;;5.90;;
9836;SDS011;4957;51.412;6.724;2023-04-09T08:53:51;8.27;;;6.50;;
9836;SDS011;4957;51.412;6.724;2023-04-09T08:56:20;8.97;;;5.90;;
9836;SDS011;4957;51.412;6.724;2023-04-09T08:58:47;7.90;;;6.10;;
9836;SDS011;4957;51.412;6.724;2023-04-09T09:01:19;6.90;;;5.40;;
9836;SDS011;4957;51.412;6.724;2023-04-09T09:04:02;7.80;;;5.33;;
9836;SDS011;4957;51.412;6.724;2023-04-09T09:06:29;6.20;;;4.90;;
9836;SDS011;4957;51.412;6.724;2023-04-09T09:09:01;4.97;;;4.40;;
9836;SDS011;4957;51.412;6.724;2023-04-09T09:11:29;5.53;;;5.00;;
9836;SDS011;4957;51.412;6.724;2023-04-09T09:14:02;5.67;;;4.60;;
9836;SDS011;4957;51.412;6.724;2023-04-09T09:16:29;6.83;;;4.47;;
9836;SDS011;4957;51.412;6.724;2023-04-09T09:18:57;6.37;;;4.50;;
9836;SDS011;4957;51.412;6.724;2023-04-09T09:21:23;5.67;;;4.70;;
9836;SDS011;4957;51.412;6.724;2023-04-09T09:23:50;7.27;;;5.00;;
9836;SDS011;4957;51.412;6.724;2023-04-09T09:26:20;5.63;;;4.53;;
9836;SDS011;4957;51.412;6.724;2023-04-09T09:28:48;5.30;;;4.00;;
9836;SDS011;4957;51.412;6.724;2023-04-09T09:31:15;5.30;;;4.43;;
9836;SDS011;4957;51.412;6.724;2023-04-09T09:33:42;5.97;;;5.03;;
9836;SDS011;4957;51.412;6.724;2023-04-09T09:36:08;4.70;;;4.30;;
9836;SDS011;4957;51.412;6.724;2023-04-09T09:38:51;4.87;;;4.37;;
9836;SDS011;4957;51.412;6.724;2023-04-09T09:41:18;4.90;;;4.33;;
9836;SDS011;4957;51.412;6.724;2023-04-09T09:43:44;4.90;;;4.40;;
9836;SDS011;4957;51.412;6.724;2023-04-09T09:46:10;5.93;;;4.40;;
9836;SDS011;4957;51.412;6.724;2023-04-09T09:48:36;5.13;;;4.50;;
9836;SDS011;4957;51.412;6.724;2023-04-09T09:51:07;5.63;;;4.87;;
9836;SDS011;4957;51.412;6.724;2023-04-09T09:53:38;7.20;;;4.83;;
9836;SDS011;4957;51.412;6.724;2023-04-09T09:56:06;4.90;;;4.27;;
9836;SDS011;4957;51.412;6.724;2023-04-09T09:58:36;5.17;;;4.53;;
9836;SDS011;4957;51.412;6.724;2023-04-09T10:01:18;7.33;;;4.33;;
9836;SDS011;4957;51.412;6.724;2023-04-09T10:03:45;5.53;;;4.40;;
9836;SDS011;4957;51.412;6.724;2023-04-09T10:06:13;6.57;;;4.60;;
9836;SDS011;4957;51.412;6.724;2023-04-09T10:08:40;4.50;;;4.10;;
9836;SDS011;4957;51.412;6.724;2023-04-09T10:11:07;7.67;;;4.63;;
9836;SDS011;4957;51.412;6.724;2023-04-09T10:13:34;6.40;;;4.70;;
9836;SDS011;4957;51.412;6.724;2023-04-09T10:16:04;5.80;;;4.93;;
9836;SDS011;4957;51.412;6.724;2023-04-09T10:18:31;5.13;;;4.63;;
9836;SDS011;4957;51.412;6.724;2023-04-09T10:23:44;5.67;;;4.13;;
9836;SDS011;4957;51.412;6.724;2023-04-09T10:26:13;5.13;;;4.63;;
9836;SDS011;4957;51.412;6.724;2023-04-09T10:28:39;5.60;;;4.77;;
9836;SDS011;4957;51.412;6.724;2023-04-09T10:31:05;5.23;;;4.10;;
9836;SDS011;4957;51.412;6.724;2023-04-09T10:33:31;5.90;;;4.67;;
9836;SDS011;4957;51.412;6.724;2023-04-09T10:36:01;4.50;;;4.10;;
9836;SDS011;4957;51.412;6.724;2023-04-09T10:38:38;4.67;;;4.17;;
9836;SDS011;4957;51.412;6.724;2023-04-09T10:41:15;5.40;;;4.10;;
9836;SDS011;4957;51.412;6.724;2023-04-09T10:43:47;3.90;;;3.57;;
9836;SDS011;4957;51.412;6.724;2023-04-09T10:52:03;4.63;;;4.23;;
9836;SDS011;4957;51.412;6.724;2023-04-09T10:57:18;4.03;;;3.63;;
9836;SDS011;4957;51.412;6.724;2023-04-09T10:59:46;3.83;;;3.53;;
9836;SDS011;4957;51.412;6.724;2023-04-09T11:10:33;4.60;;;4.03;;
9836;SDS011;4957;51.412;6.724;2023-04-09T11:13:00;4.27;;;3.87;;
9836;SDS011;4957;51.412;6.724;2023-04-09T11:15:26;4.43;;;3.90;;
9836;SDS011;4957;51.412;6.724;2023-04-09T11:17:52;4.50;;;3.93;;
9836;SDS011;4957;51.412;6.724;2023-04-09T11:20:19;4.10;;;3.70;;
9836;SDS011;4957;51.412;6.724;2023-04-09T11:22:50;5.30;;;4.10;;
9836;SDS011;4957;51.412;6.724;2023-04-09T11:25:18;5.20;;;4.30;;
9836;SDS011;4957;51.412;6.724;2023-04-09T11:27:48;4.47;;;4.00;;
9836;SDS011;4957;51.412;6.724;2023-04-09T11:30:14;4.50;;;4.07;;
9836;SDS011;4957;51.412;6.724;2023-04-09T11:32:40;4.40;;;3.87;;
9836;SDS011;4957;51.412;6.724;2023-04-09T11:35:18;4.17;;;3.80;;
9836;SDS011;4957;51.412;6.724;2023-04-09T11:37:45;5.30;;;4.13;;
9836;SDS011;4957;51.412;6.724;2023-04-09T11:42:41;5.80;;;4.43;;
9836;SDS011;4957;51.412;6.724;2023-04-09T11:45:08;4.87;;;4.40;;
9836;SDS011;4957;51.412;6.724;2023-04-09T11:47:35;4.50;;;3.77;;
9836;SDS011;4957;51.412;6.724;2023-04-09T11:50:04;6.60;;;4.60;;
9836;SDS011;4957;51.412;6.724;2023-04-09T11:52:31;5.23;;;4.63;;
9836;SDS011;4957;51.412;6.724;2023-04-09T11:55:00;4.83;;;4.20;;
9836;SDS011;4957;51.412;6.724;2023-04-09T11:57:43;7.37;;;4.53;;
9836;SDS011;4957;51.412;6.724;2023-04-09T12:00:10;4.50;;;4.10;;
9836;SDS011;4957;51.412;6.724;2023-04-09T12:02:43;4.57;;;4.13;;
9836;SDS011;4957;51.412;6.724;2023-04-09T12:05:12;5.03;;;4.17;;
9836;SDS011;4957;51.412;6.724;2023-04-09T12:07:50;4.90;;;4.17;;
9836;SDS011;4957;51.412;6.724;2023-04-09T12:10:25;4.77;;;4.10;;
9836;SDS011;4957;51.412;6.724;2023-04-09T12:12:59;4.70;;;4.00;;
9836;SDS011;4957;51.412;6.724;2023-04-09T12:15:29;5.03;;;4.53;;
9836;SDS011;4957;51.412;6.724;2023-04-09T12:17:56;4.83;;;4.40;;
9836;SDS011;4957;51.412;6.724;2023-04-09T12:22:56;4.90;;;4.40;;
9836;SDS011;4957;51.412;6.724;2023-04-09T12:25:24;5.43;;;4.57;;
9836;SDS011;4957;51.412;6.724;2023-04-09T12:27:50;4.80;;;4.30;;
9836;SDS011;4957;51.412;6.724;2023-04-09T12:30:16;5.80;;;4.67;;
9836;SDS011;4957;51.412;6.724;2023-04-09T12:32:41;4.77;;;4.37;;
9836;SDS011;4957;51.412;6.724;2023-04-09T12:35:08;5.10;;;4.47;;
9836;SDS011;4957;51.412;6.724;2023-04-09T12:37:34;4.67;;;4.27;;
9836;SDS011;4957;51.412;6.724;2023-04-09T12:40:00;5.00;;;4.50;;
9836;SDS011;4957;51.412;6.724;2023-04-09T12:42:26;4.70;;;4.30;;
9836;SDS011;4957;51.412;6.724;2023-04-09T12:44:51;4.47;;;4.07;;
9836;SDS011;4957;51.412;6.724;2023-04-09T12:47:17;4.90;;;4.50;;
9836;SDS011;4957;51.412;6.724;2023-04-09T12:49:43;4.40;;;4.00;;
9836;SDS011;4957;51.412;6.724;2023-04-09T12:52:10;4.27;;;3.87;;
9836;SDS011;4957;51.412;6.724;2023-04-09T12:54:36;4.73;;;4.20;;
9836;SDS011;4957;51.412;6.724;2023-04-09T12:57:04;5.17;;;4.60;;
9836;SDS011;4957;51.412;6.724;2023-04-09T12:59:30;5.00;;;4.50;;
9836;SDS011;4957;51.412;6.724;2023-04-09T13:01:55;4.47;;;3.90;;
9836;SDS011;4957;51.412;6.724;2023-04-09T13:04:21;6.43;;;4.30;;
9836;SDS011;4957;51.412;6.724;2023-04-09T13:06:47;4.30;;;3.90;;
9836;SDS011;4957;51.412;6.724;2023-04-09T13:09:13;6.00;;;4.80;;
9836;SDS011;4957;51.412;6.724;2023-04-09T13:11:38;4.83;;;4.33;;
9836;SDS011;4957;51.412;6.724;2023-04-09T13:14:04;4.67;;;4.20;;
9836;SDS011;4957;51.412;6.724;2023-04-09T13:16:30;5.73;;;4.20;;
9836;SDS011;4957;51.412;6.724;2023-04-09T13:18:57;6.13;;;4.90;;
9836;SDS011;4957;51.412;6.724;2023-04-09T13:21:22;6.33;;;5.10;;
9836;SDS011;4957;51.412;6.724;2023-04-09T13:23:48;6.00;;;4.93;;
9836;SDS011;4957;51.412;6.724;2023-04-09T13:26:14;5.10;;;4.60;;
9836;SDS011;4957;51.412;6.724;2023-04-09T13:28:40;7.53;;;4.47;;
9836;SDS011;4957;51.412;6.724;2023-04-09T13:31:06;5.93;;;4.17;;
9836;SDS011;4957;51.412;6.724;2023-04-09T13:33:31;5.27;;;4.57;;
9836;SDS011;4957;51.412;6.724;2023-04-09T13:35:57;4.73;;;4.33;;
9836;SDS011;4957;51.412;6.724;2023-04-09T13:38:23;4.70;;;4.30;;
9836;SDS011;4957;51.412;6.724;2023-04-09T13:40:48;5.23;;;4.53;;
9836;SDS011;4957;51.412;6.724;2023-04-09T13:43:14;5.97;;;4.20;;
9836;SDS011;4957;51.412;6.724;2023-04-09T13:45:40;5.77;;;4.70;;
9836;SDS011;4957;51.412;6.724;2023-04-09T13:48:06;6.07;;;4.87;;
9836;SDS011;4957;51.412;6.724;2023-04-09T13:50:32;6.60;;;5.13;;
9836;SDS011;4957;51.412;6.724;2023-04-09T13:52:57;5.30;;;4.80;;
9836;SDS011;4957;51.412;6.724;2023-04-09T13:55:23;5.03;;;4.50;;
9836;SDS011;4957;51.412;6.724;2023-04-09T13:57:49;6.67;;;5.10;;
9836;SDS011;4957;51.412;6.724;2023-04-09T14:00:15;4.80;;;4.20;;
9836;SDS011;4957;51.412;6.724;2023-04-09T14:02:41;4.73;;;4.20;;
9836;SDS011;4957;51.412;6.724;2023-04-09T14:05:07;4.83;;;4.37;;
9836;SDS011;4957;51.412;6.724;2023-04-09T14:07:33;6.00;;;4.70;;
9836;SDS011;4957;51.412;6.724;2023-04-09T14:09:58;4.57;;;4.17;;
9836;SDS011;4957;51.412;6.724;2023-04-09T14:12:24;5.47;;;4.03;;
9836;SDS011;4957;51.412;6.724;2023-04-09T14:14:50;4.57;;;4.10;;
9836;SDS011;4957;51.412;6.724;2023-04-09T14:17:16;4.80;;;4.20;;
9836;SDS011;4957;51.412;6.724;2023-04-09T14:19:41;4.97;;;4.27;;
9836;SDS011;4957;51.412;6.724;2023-04-09T14:22:07;5.27;;;4.27;;
9836;SDS011;4957;51.412;6.724;2023-04-09T14:24:34;4.60;;;4.13;;
9836;SDS011;4957;51.412;6.724;2023-04-09T14:27:04;4.70;;;4.20;;
9836;SDS011;4957;51.412;6.724;2023-04-09T14:29:31;5.23;;;4.73;;
9836;SDS011;4957;51.412;6.724;2023-04-09T14:31:57;6.90;;;5.00;;
9836;SDS011;4957;51.412;6.724;2023-04-09T14:34:24;6.33;;;4.43;;
9836;SDS011;4957;51.412;6.724;2023-04-09T14:36:49;4.43;;;4.03;;
9836;SDS011;4957;51.412;6.724;2023-04-09T14:39:15;4.70;;;4.20;;
9836;SDS011;4957;51.412;6.724;2023-04-09T14:41:41;5.50;;;4.57;;
9836;SDS011;4957;51.412;6.724;2023-04-09T14:44:07;5.00;;;4.50;;
9836;SDS011;4957;51.412;6.724;2023-04-09T14:46:34;4.50;;;4.10;;
9836;SDS011;4957;51.412;6.724;2023-04-09T14:49:00;4.90;;;4.17;;
9836;SDS011;4957;51.412;6.724;2023-04-09T14:51:27;5.27;;;4.30;;
9836;SDS011;4957;51.412;6.724;2023-04-09T14:53:54;4.83;;;4.33;;
9836;SDS011;4957;51.412;6.724;2023-04-09T14:56:21;4.13;;;3.43;;
9836;SDS011;4957;51.412;6.724;2023-04-09T14:58:49;3.73;;;3.20;;
9836;SDS011;4957;51.412;6.724;2023-04-09T15:01:15;6.33;;;3.80;;
9836;SDS011;4957;51.412;6.724;2023-04-09T15:03:41;4.90;;;3.93;;
9836;SDS011;4957;51.412;6.724;2023-04-09T15:06:07;4.90;;;4.13;;
9836;SDS011;4957;51.412;6.724;2023-04-09T15:08:32;4.20;;;3.80;;
9836;SDS011;4957;51.412;6.724;2023-04-09T15:10:58;4.40;;;4.00;;
9836;SDS011;4957;51.412;6.724;2023-04-09T15:13:24;4.10;;;3.53;;
9836;SDS011;4957;51.412;6.724;2023-04-09T15:15:50;4.57;;;4.17;;
9836;SDS011;4957;51.412;6.724;2023-04-09T15:18:15;4.17;;;3.70;;
9836;SDS011;4957;51.412;6.724;2023-04-09T15:20:41;4.67;;;4.17;;
9836;SDS011;4957;51.412;6.724;2023-04-09T15:23:07;6.03;;;3.77;;
9836;SDS011;4957;51.412;6.724;2023-04-09T15:25:36;4.10;;;3.63;;
9836;SDS011;4957;51.412;6.724;2023-04-09T15:28:03;4.77;;;3.90;;